sensor_id;sensor_type;location;lat;lon;timestamp;pressure;altitude;pressure_sealevel;temperature;humidity
55517;BME280;41724;51.176;-0.708;2023-05-23T00:01:03;102067.78;;;15.88;37.86
55517;BME280;41724;51.176;-0.708;2023-05-23T00:03:30;102071.92;;;15.52;38.44
55517;BME280;41724;51.176;-0.708;2023-05-23T00:05:57;102064.55;;;15.89;38.19
55517;BME280;41724;51.176;-0.708;2023-05-23T00:08:24;102058.51;;;16.00;38.28
55517;BME280;41724;51.176;-0.708;2023-05-23T00:10:51;102054.59;;;15.92;38.63
55517;BME280;41724;51.176;-0.708;2023-05-23T00:13:18;102054.23;;;15.42;39.32
55517;BME280;41724;51.176;-0.708;2023-05-23T00:15:45;102052.37;;;15.83;39.23
55517;BME280;41724;51.176;-0.708;2023-05-23T00:18:12;102054.60;;;15.44;39.91
55517;BME280;41724;51.176;-0.708;2023-05-23T00:20:39;102049.62;;;15.84;39.37
55517;BME280;41724;51.176;-0.708;2023-05-23T00:23:06;102048.07;;;15.76;39.63
55517;BME280;41724;51.176;-0.708;2023-05-23T00:25:33;102047.34;;;15.70;39.72
55517;BME280;41724;51.176;-0.708;2023-05-23T00:28:01;102043.62;;;15.74;39.65
55517;BME280;41724;51.176;-0.708;2023-05-23T00:30:29;102044.23;;;15.63;39.56
55517;BME280;41724;51.176;-0.708;2023-05-23T00:32:57;102047.57;;;15.40;40.34
55517;BME280;41724;51.176;-0.708;2023-05-23T00:35:24;102049.08;;;15.34;40.25
55517;BME280;41724;51.176;-0.708;2023-05-23T00:37:52;102052.08;;;15.30;39.82
55517;BME280;41724;51.176;-0.708;2023-05-23T00:40:18;102053.82;;;15.02;40.20
55517;BME280;41724;51.176;-0.708;2023-05-23T00:42:46;102053.86;;;15.22;40.11
55517;BME280;41724;51.176;-0.708;2023-05-23T00:45:14;102056.52;;;15.28;39.55
55517;BME280;41724;51.176;-0.708;2023-05-23T00:47:41;102054.03;;;15.27;39.87
55517;BME280;41724;51.176;-0.708;2023-05-23T00:50:12;102050.52;;;15.09;40.00
55517;BME280;41724;51.176;-0.708;2023-05-23T00:52:39;102054.29;;;14.91;40.47
55517;BME280;41724;51.176;-0.708;2023-05-23T00:55:09;102050.96;;;14.93;40.26
55517;BME280;41724;51.176;-0.708;2023-05-23T00:57:36;102054.00;;;14.66;41.62
55517;BME280;41724;51.176;-0.708;2023-05-23T01:00:05;102062.37;;;14.84;41.11
55517;BME280;41724;51.176;-0.708;2023-05-23T01:02:35;102061.19;;;14.70;41.25
55517;BME280;41724;51.176;-0.708;2023-05-23T01:05:04;102053.60;;;14.73;41.67
55517;BME280;41724;51.176;-0.708;2023-05-23T01:07:31;102051.96;;;14.68;42.25
55517;BME280;41724;51.176;-0.708;2023-05-23T01:09:58;102052.07;;;14.60;42.46
55517;BME280;41724;51.176;-0.708;2023-05-23T01:12:34;102059.41;;;14.53;42.47
55517;BME280;41724;51.176;-0.708;2023-05-23T01:15:10;102061.50;;;14.39;42.87
55517;BME280;41724;51.176;-0.708;2023-05-23T01:17:43;102060.28;;;14.61;42.74
55517;BME280;41724;51.176;-0.708;2023-05-23T01:20:15;102060.29;;;14.27;43.03
55517;BME280;41724;51.176;-0.708;2023-05-23T01:22:58;102060.18;;;14.32;43.50
55517;BME280;41724;51.176;-0.708;2023-05-23T01:25:37;102059.24;;;14.02;43.87
55517;BME280;41724;51.176;-0.708;2023-05-23T01:28:07;102061.36;;;14.03;44.33
55517;BME280;41724;51.176;-0.708;2023-05-23T01:30:39;102056.88;;;13.96;44.23
55517;BME280;41724;51.176;-0.708;2023-05-23T01:33:08;102054.82;;;14.04;43.99
55517;BME280;41724;51.176;-0.708;2023-05-23T01:35:36;102060.21;;;13.74;44.44
55517;BME280;41724;51.176;-0.708;2023-05-23T01:38:04;102057.21;;;13.98;44.63
55517;BME280;41724;51.176;-0.708;2023-05-23T01:40:30;102061.10;;;13.55;45.02
55517;BME280;41724;51.176;-0.708;2023-05-23T01:42:58;102062.79;;;13.83;44.99
55517;BME280;41724;51.176;-0.708;2023-05-23T01:45:26;102062.25;;;14.11;45.38
55517;BME280;41724;51.176;-0.708;2023-05-23T01:47:55;102063.43;;;13.62;45.01
55517;BME280;41724;51.176;-0.708;2023-05-23T01:50:22;102065.49;;;13.79;45.54
55517;BME280;41724;51.176;-0.708;2023-05-23T01:52:50;102067.08;;;13.44;45.87
55517;BME280;41724;51.176;-0.708;2023-05-23T01:55:19;102066.97;;;13.21;45.87
55517;BME280;41724;51.176;-0.708;2023-05-23T01:57:49;102066.56;;;13.55;45.82
55517;BME280;41724;51.176;-0.708;2023-05-23T02:00:17;102070.27;;;13.11;47.23
55517;BME280;41724;51.176;-0.708;2023-05-23T02:02:44;102070.04;;;13.31;46.65
55517;BME280;41724;51.176;-0.708;2023-05-23T02:05:11;102068.55;;;13.20;46.44
55517;BME280;41724;51.176;-0.708;2023-05-23T02:07:38;102073.61;;;13.18;46.80
55517;BME280;41724;51.176;-0.708;2023-05-23T02:10:07;102067.03;;;13.06;47.45
55517;BME280;41724;51.176;-0.708;2023-05-23T02:12:35;102070.70;;;13.13;47.79
55517;BME280;41724;51.176;-0.708;2023-05-23T02:15:03;102074.25;;;13.39;47.38
55517;BME280;41724;51.176;-0.708;2023-05-23T02:17:31;102080.77;;;13.62;46.76
55517;BME280;41724;51.176;-0.708;2023-05-23T02:19:58;102081.40;;;13.73;46.32
55517;BME280;41724;51.176;-0.708;2023-05-23T02:22:26;102083.27;;;13.31;47.35
55517;BME280;41724;51.176;-0.708;2023-05-23T02:24:53;102088.48;;;13.36;47.12
55517;BME280;41724;51.176;-0.708;2023-05-23T02:27:19;102083.74;;;13.49;47.00
55517;BME280;41724;51.176;-0.708;2023-05-23T02:29:47;102083.17;;;13.01;47.58
55517;BME280;41724;51.176;-0.708;2023-05-23T02:32:14;102084.86;;;13.34;47.06
55517;BME280;41724;51.176;-0.708;2023-05-23T02:34:41;102084.93;;;13.28;47.43
55517;BME280;41724;51.176;-0.708;2023-05-23T02:37:08;102086.63;;;13.15;47.05
55517;BME280;41724;51.176;-0.708;2023-05-23T02:39:35;102085.94;;;13.23;47.36
55517;BME280;41724;51.176;-0.708;2023-05-23T02:42:03;102093.19;;;12.89;48.28
55517;BME280;41724;51.176;-0.708;2023-05-23T02:44:30;102094.11;;;13.06;48.15
55517;BME280;41724;51.176;-0.708;2023-05-23T02:46:57;102094.44;;;13.11;47.93
55517;BME280;41724;51.176;-0.708;2023-05-23T02:49:24;102096.63;;;13.06;48.01
55517;BME280;41724;51.176;-0.708;2023-05-23T02:51:51;102099.51;;;13.18;48.02
55517;BME280;41724;51.176;-0.708;2023-05-23T02:54:18;102108.23;;;13.00;48.93
55517;BME280;41724;51.176;-0.708;2023-05-23T02:56:45;102110.65;;;12.68;49.88
55517;BME280;41724;51.176;-0.708;2023-05-23T02:59:13;102108.34;;;12.62;49.53
55517;BME280;41724;51.176;-0.708;2023-05-23T03:01:39;102107.88;;;12.66;49.76
55517;BME280;41724;51.176;-0.708;2023-05-23T03:04:07;102108.27;;;12.75;49.17
55517;BME280;41724;51.176;-0.708;2023-05-23T03:06:34;102112.87;;;12.84;49.28
55517;BME280;41724;51.176;-0.708;2023-05-23T03:09:01;102116.42;;;13.02;48.97
55517;BME280;41724;51.176;-0.708;2023-05-23T03:11:28;102113.61;;;13.12;48.72
55517;BME280;41724;51.176;-0.708;2023-05-23T03:13:56;102116.07;;;13.12;48.74
55517;BME280;41724;51.176;-0.708;2023-05-23T03:16:22;102113.33;;;13.29;48.45
55517;BME280;41724;51.176;-0.708;2023-05-23T03:18:50;102115.12;;;12.83;49.62
55517;BME280;41724;51.176;-0.708;2023-05-23T03:21:17;102118.41;;;13.10;49.67
55517;BME280;41724;51.176;-0.708;2023-05-23T03:23:44;102116.65;;;12.68;51.25
55517;BME280;41724;51.176;-0.708;2023-05-23T03:26:11;102121.27;;;12.65;50.69
55517;BME280;41724;51.176;-0.708;2023-05-23T03:28:38;102118.69;;;12.76;51.27
55517;BME280;41724;51.176;-0.708;2023-05-23T03:31:06;102118.47;;;12.49;51.66
55517;BME280;41724;51.176;-0.708;2023-05-23T03:33:33;102109.68;;;12.77;51.54
55517;BME280;41724;51.176;-0.708;2023-05-23T03:36:00;102110.03;;;12.75;51.66
55517;BME280;41724;51.176;-0.708;2023-05-23T03:38:27;102108.79;;;12.77;51.62
55517;BME280;41724;51.176;-0.708;2023-05-23T03:40:54;102109.63;;;12.74;51.44
55517;BME280;41724;51.176;-0.708;2023-05-23T03:43:21;102113.42;;;12.52;52.44
55517;BME280;41724;51.176;-0.708;2023-05-23T03:45:48;102114.70;;;11.95;53.48
55517;BME280;41724;51.176;-0.708;2023-05-23T03:48:16;102123.64;;;12.22;55.28
55517;BME280;41724;51.176;-0.708;2023-05-23T03:50:43;102120.43;;;12.22;54.42
55517;BME280;41724;51.176;-0.708;2023-05-23T03:53:10;102122.66;;;12.22;54.55
55517;BME280;41724;51.176;-0.708;2023-05-23T03:55:38;102120.63;;;12.82;54.01
55517;BME280;41724;51.176;-0.708;2023-05-23T03:58:04;102124.25;;;12.89;53.70
55517;BME280;41724;51.176;-0.708;2023-05-23T04:00:31;102125.03;;;12.73;53.49
55517;BME280;41724;51.176;-0.708;2023-05-23T04:02:58;102127.37;;;12.95;53.47
55517;BME280;41724;51.176;-0.708;2023-05-23T04:05:25;102134.39;;;12.92;53.30
55517;BME280;41724;51.176;-0.708;2023-05-23T04:07:52;102131.49;;;12.98;53.17
55517;BME280;41724;51.176;-0.708;2023-05-23T04:10:19;102128.57;;;12.57;53.23
55517;BME280;41724;51.176;-0.708;2023-05-23T04:12:46;102129.16;;;13.11;53.24
55517;BME280;41724;51.176;-0.708;2023-05-23T04:15:13;102127.70;;;12.72;53.22
55517;BME280;41724;51.176;-0.708;2023-05-23T04:17:40;102135.09;;;13.03;52.97
55517;BME280;41724;51.176;-0.708;2023-05-23T04:20:08;102131.84;;;13.25;52.89
55517;BME280;41724;51.176;-0.708;2023-05-23T04:22:37;102130.19;;;13.09;52.92
55517;BME280;41724;51.176;-0.708;2023-05-23T04:25:05;102137.24;;;13.39;53.10
55517;BME280;41724;51.176;-0.708;2023-05-23T04:27:32;102131.46;;;13.16;52.91
55517;BME280;41724;51.176;-0.708;2023-05-23T04:30:00;102135.87;;;12.99;53.59
55517;BME280;41724;51.176;-0.708;2023-05-23T04:32:27;102128.60;;;13.09;54.69
55517;BME280;41724;51.176;-0.708;2023-05-23T04:34:54;102131.03;;;12.88;54.75
55517;BME280;41724;51.176;-0.708;2023-05-23T04:37:21;102134.52;;;12.99;55.10
55517;BME280;41724;51.176;-0.708;2023-05-23T04:39:48;102132.05;;;13.05;54.54
55517;BME280;41724;51.176;-0.708;2023-05-23T04:42:15;102137.09;;;13.06;55.99
55517;BME280;41724;51.176;-0.708;2023-05-23T04:44:42;102139.08;;;13.02;55.14
55517;BME280;41724;51.176;-0.708;2023-05-23T04:47:10;102141.54;;;13.42;54.72
55517;BME280;41724;51.176;-0.708;2023-05-23T04:49:38;102149.07;;;13.22;55.49
55517;BME280;41724;51.176;-0.708;2023-05-23T04:52:05;102149.56;;;13.48;54.86
55517;BME280;41724;51.176;-0.708;2023-05-23T04:54:32;102155.09;;;13.56;54.71
55517;BME280;41724;51.176;-0.708;2023-05-23T04:56:59;102152.75;;;13.17;55.25
55517;BME280;41724;51.176;-0.708;2023-05-23T04:59:27;102151.92;;;13.17;55.52
55517;BME280;41724;51.176;-0.708;2023-05-23T05:01:55;102151.88;;;12.59;56.57
55517;BME280;41724;51.176;-0.708;2023-05-23T05:04:22;102151.63;;;13.31;55.64
55517;BME280;41724;51.176;-0.708;2023-05-23T05:06:50;102149.36;;;13.44;55.33
55517;BME280;41724;51.176;-0.708;2023-05-23T05:09:17;102144.45;;;13.56;55.10
55517;BME280;41724;51.176;-0.708;2023-05-23T05:11:44;102147.84;;;13.88;54.49
55517;BME280;41724;51.176;-0.708;2023-05-23T05:14:11;102154.98;;;13.92;54.21
55517;BME280;41724;51.176;-0.708;2023-05-23T05:16:38;102157.05;;;13.74;53.94
55517;BME280;41724;51.176;-0.708;2023-05-23T05:19:05;102158.58;;;14.11;53.80
55517;BME280;41724;51.176;-0.708;2023-05-23T05:21:32;102164.70;;;13.35;56.06
55517;BME280;41724;51.176;-0.708;2023-05-23T05:23:59;102161.15;;;13.84;55.17
55517;BME280;41724;51.176;-0.708;2023-05-23T05:26:26;102167.09;;;13.91;55.08
55517;BME280;41724;51.176;-0.708;2023-05-23T05:28:54;102166.60;;;14.10;54.56
55517;BME280;41724;51.176;-0.708;2023-05-23T05:31:21;102164.73;;;13.92;54.62
55517;BME280;41724;51.176;-0.708;2023-05-23T05:33:48;102170.32;;;13.95;54.81
55517;BME280;41724;51.176;-0.708;2023-05-23T05:36:15;102180.83;;;14.34;54.93
55517;BME280;41724;51.176;-0.708;2023-05-23T05:38:42;102177.47;;;13.88;54.89
55517;BME280;41724;51.176;-0.708;2023-05-23T05:41:09;102180.44;;;14.40;54.78
55517;BME280;41724;51.176;-0.708;2023-05-23T05:43:35;102174.47;;;14.32;54.70
55517;BME280;41724;51.176;-0.708;2023-05-23T05:46:02;102176.16;;;14.45;54.75
55517;BME280;41724;51.176;-0.708;2023-05-23T05:48:30;102170.34;;;14.58;54.82
55517;BME280;41724;51.176;-0.708;2023-05-23T05:50:57;102173.48;;;14.68;54.02
55517;BME280;41724;51.176;-0.708;2023-05-23T05:53:24;102170.70;;;14.28;54.55
55517;BME280;41724;51.176;-0.708;2023-05-23T05:55:52;102170.14;;;14.32;54.78
55517;BME280;41724;51.176;-0.708;2023-05-23T05:58:21;102169.41;;;14.20;54.07
55517;BME280;41724;51.176;-0.708;2023-05-23T06:00:48;102174.28;;;14.39;53.99
55517;BME280;41724;51.176;-0.708;2023-05-23T06:03:15;102174.29;;;14.52;54.66
55517;BME280;41724;51.176;-0.708;2023-05-23T06:05:42;102176.92;;;14.65;54.42
55517;BME280;41724;51.176;-0.708;2023-05-23T06:08:10;102180.80;;;14.80;53.44
55517;BME280;41724;51.176;-0.708;2023-05-23T06:10:37;102177.83;;;14.63;54.18
55517;BME280;41724;51.176;-0.708;2023-05-23T06:13:04;102185.78;;;14.98;54.04
55517;BME280;41724;51.176;-0.708;2023-05-23T06:15:31;102188.61;;;15.01;53.49
55517;BME280;41724;51.176;-0.708;2023-05-23T06:17:58;102192.78;;;14.80;54.19
55517;BME280;41724;51.176;-0.708;2023-05-23T06:20:25;102186.45;;;14.73;53.55
55517;BME280;41724;51.176;-0.708;2023-05-23T06:22:52;102189.80;;;15.00;53.37
55517;BME280;41724;51.176;-0.708;2023-05-23T06:25:19;102191.03;;;15.16;53.95
55517;BME280;41724;51.176;-0.708;2023-05-23T06:27:46;102192.28;;;14.94;53.78
55517;BME280;41724;51.176;-0.708;2023-05-23T06:30:14;102195.01;;;15.10;53.27
55517;BME280;41724;51.176;-0.708;2023-05-23T06:32:42;102191.80;;;15.27;53.36
55517;BME280;41724;51.176;-0.708;2023-05-23T06:35:09;102192.34;;;14.77;54.77
55517;BME280;41724;51.176;-0.708;2023-05-23T06:37:36;102192.05;;;14.83;53.48
55517;BME280;41724;51.176;-0.708;2023-05-23T06:40:04;102193.08;;;15.00;53.51
55517;BME280;41724;51.176;-0.708;2023-05-23T06:42:31;102196.08;;;15.05;53.81
55517;BME280;41724;51.176;-0.708;2023-05-23T06:44:58;102193.43;;;15.23;53.16
55517;BME280;41724;51.176;-0.708;2023-05-23T06:47:25;102199.62;;;14.47;53.90
55517;BME280;41724;51.176;-0.708;2023-05-23T06:49:52;102201.24;;;15.57;53.24
55517;BME280;41724;51.176;-0.708;2023-05-23T06:52:19;102198.21;;;14.72;53.62
55517;BME280;41724;51.176;-0.708;2023-05-23T06:54:46;102196.16;;;14.88;54.43
55517;BME280;41724;51.176;-0.708;2023-05-23T06:57:13;102190.03;;;15.13;54.45
55517;BME280;41724;51.176;-0.708;2023-05-23T06:59:41;102186.83;;;15.28;54.84
55517;BME280;41724;51.176;-0.708;2023-05-23T07:02:08;102184.88;;;15.68;54.30
55517;BME280;41724;51.176;-0.708;2023-05-23T07:04:35;102186.36;;;15.77;52.19
55517;BME280;41724;51.176;-0.708;2023-05-23T07:07:02;102179.67;;;16.00;51.37
55517;BME280;41724;51.176;-0.708;2023-05-23T07:09:29;102180.43;;;15.69;52.08
55517;BME280;41724;51.176;-0.708;2023-05-23T07:11:56;102182.71;;;15.56;51.66
55517;BME280;41724;51.176;-0.708;2023-05-23T07:14:23;102185.42;;;15.91;50.76
55517;BME280;41724;51.176;-0.708;2023-05-23T07:16:50;102183.58;;;15.72;50.57
55517;BME280;41724;51.176;-0.708;2023-05-23T07:19:17;102190.15;;;15.46;51.44
55517;BME280;41724;51.176;-0.708;2023-05-23T07:21:44;102191.24;;;16.20;49.85
55517;BME280;41724;51.176;-0.708;2023-05-23T07:24:12;102186.99;;;16.15;49.99
55517;BME280;41724;51.176;-0.708;2023-05-23T07:26:39;102191.76;;;16.65;48.82
55517;BME280;41724;51.176;-0.708;2023-05-23T07:29:06;102196.27;;;16.75;48.73
55517;BME280;41724;51.176;-0.708;2023-05-23T07:31:33;102202.62;;;17.12;47.56
55517;BME280;41724;51.176;-0.708;2023-05-23T07:34:00;102204.43;;;16.98;45.70
55517;BME280;41724;51.176;-0.708;2023-05-23T07:36:27;102201.63;;;16.39;47.29
55517;BME280;41724;51.176;-0.708;2023-05-23T07:38:54;102199.53;;;17.01;48.22
55517;BME280;41724;51.176;-0.708;2023-05-23T07:41:21;102196.96;;;16.59;47.53
55517;BME280;41724;51.176;-0.708;2023-05-23T07:43:48;102196.26;;;16.87;46.20
55517;BME280;41724;51.176;-0.708;2023-05-23T07:46:15;102195.37;;;16.10;47.24
55517;BME280;41724;51.176;-0.708;2023-05-23T07:48:43;102195.09;;;17.02;46.66
55517;BME280;41724;51.176;-0.708;2023-05-23T07:51:10;102193.17;;;17.44;44.74
55517;BME280;41724;51.176;-0.708;2023-05-23T07:53:37;102192.39;;;17.87;45.40
55517;BME280;41724;51.176;-0.708;2023-05-23T07:56:04;102191.84;;;17.94;45.21
55517;BME280;41724;51.176;-0.708;2023-05-23T07:58:31;102190.92;;;18.24;42.98
55517;BME280;41724;51.176;-0.708;2023-05-23T08:00:58;102191.83;;;18.26;41.74
55517;BME280;41724;51.176;-0.708;2023-05-23T08:03:25;102188.83;;;17.73;41.76
55517;BME280;41724;51.176;-0.708;2023-05-23T08:05:52;102192.32;;;18.17;42.89
55517;BME280;41724;51.176;-0.708;2023-05-23T08:08:19;102194.18;;;17.82;40.53
55517;BME280;41724;51.176;-0.708;2023-05-23T08:10:47;102195.89;;;17.90;41.26
55517;BME280;41724;51.176;-0.708;2023-05-23T08:13:13;102196.19;;;17.98;42.46
55517;BME280;41724;51.176;-0.708;2023-05-23T08:15:40;102190.38;;;18.18;42.21
55517;BME280;41724;51.176;-0.708;2023-05-23T08:18:07;102197.57;;;18.53;41.78
55517;BME280;41724;51.176;-0.708;2023-05-23T08:20:34;102198.93;;;17.88;41.23
55517;BME280;41724;51.176;-0.708;2023-05-23T08:23:01;102194.51;;;18.19;41.47
55517;BME280;41724;51.176;-0.708;2023-05-23T08:25:28;102193.76;;;18.55;41.33
55517;BME280;41724;51.176;-0.708;2023-05-23T08:27:56;102192.43;;;17.61;40.96
55517;BME280;41724;51.176;-0.708;2023-05-23T08:30:23;102190.10;;;17.54;42.43
55517;BME280;41724;51.176;-0.708;2023-05-23T08:32:50;102190.07;;;18.04;42.11
55517;BME280;41724;51.176;-0.708;2023-05-23T08:35:18;102190.75;;;18.45;40.52
55517;BME280;41724;51.176;-0.708;2023-05-23T08:37:45;102193.85;;;18.64;39.70
55517;BME280;41724;51.176;-0.708;2023-05-23T08:40:16;102190.24;;;18.81;39.26
55517;BME280;41724;51.176;-0.708;2023-05-23T08:42:46;102188.31;;;18.79;39.97
55517;BME280;41724;51.176;-0.708;2023-05-23T08:45:14;102189.40;;;18.89;38.43
55517;BME280;41724;51.176;-0.708;2023-05-23T08:47:43;102184.71;;;19.23;37.74
55517;BME280;41724;51.176;-0.708;2023-05-23T08:50:11;102185.46;;;19.02;37.70
55517;BME280;41724;51.176;-0.708;2023-05-23T08:52:43;102181.47;;;19.53;36.93
55517;BME280;41724;51.176;-0.708;2023-05-23T08:55:14;102183.52;;;19.14;37.41
55517;BME280;41724;51.176;-0.708;2023-05-23T08:57:42;102185.19;;;19.27;38.02
55517;BME280;41724;51.176;-0.708;2023-05-23T09:00:12;102183.11;;;19.13;36.79
55517;BME280;41724;51.176;-0.708;2023-05-23T09:02:39;102177.47;;;18.70;36.51
55517;BME280;41724;51.176;-0.708;2023-05-23T09:05:07;102176.02;;;19.08;37.27
55517;BME280;41724;51.176;-0.708;2023-05-23T09:07:34;102175.93;;;18.29;38.97
55517;BME280;41724;51.176;-0.708;2023-05-23T09:10:02;102178.92;;;17.89;39.47
55517;BME280;41724;51.176;-0.708;2023-05-23T09:12:29;102177.75;;;17.25;38.48
55517;BME280;41724;51.176;-0.708;2023-05-23T09:14:56;102170.58;;;18.59;39.74
55517;BME280;41724;51.176;-0.708;2023-05-23T09:17:24;102173.78;;;17.93;38.68
55517;BME280;41724;51.176;-0.708;2023-05-23T09:19:51;102168.72;;;18.66;39.08
55517;BME280;41724;51.176;-0.708;2023-05-23T09:22:24;102170.00;;;18.58;36.09
55517;BME280;41724;51.176;-0.708;2023-05-23T09:24:52;102168.00;;;18.31;38.65
55517;BME280;41724;51.176;-0.708;2023-05-23T09:27:20;102174.28;;;18.12;38.00
55517;BME280;41724;51.176;-0.708;2023-05-23T09:29:48;102173.41;;;18.67;36.91
55517;BME280;41724;51.176;-0.708;2023-05-23T09:32:16;102171.60;;;19.38;36.16
55517;BME280;41724;51.176;-0.708;2023-05-23T09:34:55;102168.77;;;19.95;35.99
55517;BME280;41724;51.176;-0.708;2023-05-23T09:37:28;102172.89;;;19.74;36.42
55517;BME280;41724;51.176;-0.708;2023-05-23T09:39:55;102177.93;;;18.76;34.58
55517;BME280;41724;51.176;-0.708;2023-05-23T09:42:23;102180.59;;;18.54;36.07
55517;BME280;41724;51.176;-0.708;2023-05-23T09:44:50;102182.07;;;19.10;35.50
55517;BME280;41724;51.176;-0.708;2023-05-23T09:47:17;102178.46;;;19.53;35.32
55517;BME280;41724;51.176;-0.708;2023-05-23T09:49:45;102180.49;;;19.63;36.23
55517;BME280;41724;51.176;-0.708;2023-05-23T09:52:12;102183.12;;;19.06;35.46
55517;BME280;41724;51.176;-0.708;2023-05-23T09:54:40;102188.89;;;19.48;35.56
55517;BME280;41724;51.176;-0.708;2023-05-23T09:57:09;102195.28;;;18.72;36.28
55517;BME280;41724;51.176;-0.708;2023-05-23T09:59:39;102197.39;;;18.94;36.96
55517;BME280;41724;51.176;-0.708;2023-05-23T10:02:11;102203.69;;;18.91;37.39
55517;BME280;41724;51.176;-0.708;2023-05-23T10:04:39;102203.31;;;19.53;36.71
55517;BME280;41724;51.176;-0.708;2023-05-23T10:07:12;102205.13;;;19.07;36.92
55517;BME280;41724;51.176;-0.708;2023-05-23T10:09:41;102206.26;;;19.14;37.10
55517;BME280;41724;51.176;-0.708;2023-05-23T10:12:37;102207.99;;;19.19;36.84
55517;BME280;41724;51.176;-0.708;2023-05-23T10:15:08;102213.96;;;18.51;36.62
55517;BME280;41724;51.176;-0.708;2023-05-23T10:17:48;102215.53;;;18.05;39.13
55517;BME280;41724;51.176;-0.708;2023-05-23T10:20:23;102214.11;;;18.58;37.20
55517;BME280;41724;51.176;-0.708;2023-05-23T10:22:51;102215.15;;;17.99;38.62
55517;BME280;41724;51.176;-0.708;2023-05-23T10:25:20;102219.81;;;17.87;38.65
55517;BME280;41724;51.176;-0.708;2023-05-23T10:27:48;102216.83;;;18.85;37.49
55517;BME280;41724;51.176;-0.708;2023-05-23T10:30:16;102212.98;;;19.36;37.61
55517;BME280;41724;51.176;-0.708;2023-05-23T10:32:43;102214.01;;;19.58;37.06
55517;BME280;41724;51.176;-0.708;2023-05-23T10:35:18;102210.06;;;19.75;34.70
55517;BME280;41724;51.176;-0.708;2023-05-23T10:37:55;102213.94;;;20.09;34.47
55517;BME280;41724;51.176;-0.708;2023-05-23T10:40:36;102218.66;;;19.67;35.49
55517;BME280;41724;51.176;-0.708;2023-05-23T10:43:12;102212.10;;;19.79;35.32
55517;BME280;41724;51.176;-0.708;2023-05-23T10:45:42;102213.79;;;19.20;33.18
55517;BME280;41724;51.176;-0.708;2023-05-23T10:48:23;102207.47;;;19.36;33.71
55517;BME280;41724;51.176;-0.708;2023-05-23T10:51:02;102200.57;;;19.79;32.82
55517;BME280;41724;51.176;-0.708;2023-05-23T10:53:30;102206.88;;;18.70;33.05
55517;BME280;41724;51.176;-0.708;2023-05-23T10:55:57;102212.10;;;20.60;33.70
55517;BME280;41724;51.176;-0.708;2023-05-23T10:58:24;102210.70;;;20.68;31.46
55517;BME280;41724;51.176;-0.708;2023-05-23T11:00:53;102209.87;;;20.70;31.20
55517;BME280;41724;51.176;-0.708;2023-05-23T11:03:33;102209.11;;;20.35;33.01
55517;BME280;41724;51.176;-0.708;2023-05-23T11:06:01;102205.39;;;19.45;33.66
55517;BME280;41724;51.176;-0.708;2023-05-23T11:08:38;102204.77;;;18.99;32.20
55517;BME280;41724;51.176;-0.708;2023-05-23T11:11:06;102204.88;;;19.32;32.05
55517;BME280;41724;51.176;-0.708;2023-05-23T11:14:05;102207.50;;;19.91;33.24
55517;BME280;41724;51.176;-0.708;2023-05-23T11:16:42;102210.97;;;20.07;33.28
55517;BME280;41724;51.176;-0.708;2023-05-23T11:19:55;102215.86;;;20.79;31.52
55517;BME280;41724;51.176;-0.708;2023-05-23T11:22:27;102216.16;;;20.38;31.44
55517;BME280;41724;51.176;-0.708;2023-05-23T11:24:55;102216.65;;;19.69;31.70
55517;BME280;41724;51.176;-0.708;2023-05-23T11:27:27;102211.49;;;19.55;31.95
55517;BME280;41724;51.176;-0.708;2023-05-23T11:29:57;102214.97;;;20.11;32.21
55517;BME280;41724;51.176;-0.708;2023-05-23T11:32:27;102218.88;;;20.19;31.68
55517;BME280;41724;51.176;-0.708;2023-05-23T11:34:54;102225.54;;;20.95;31.39
55517;BME280;41724;51.176;-0.708;2023-05-23T11:37:21;102220.53;;;20.69;30.71
55517;BME280;41724;51.176;-0.708;2023-05-23T11:39:48;102220.00;;;20.36;30.54
55517;BME280;41724;51.176;-0.708;2023-05-23T11:42:15;102212.21;;;20.97;29.42
55517;BME280;41724;51.176;-0.708;2023-05-23T11:44:42;102211.84;;;21.68;30.22
55517;BME280;41724;51.176;-0.708;2023-05-23T11:47:09;102209.93;;;23.00;28.36
55517;BME280;41724;51.176;-0.708;2023-05-23T11:49:38;102205.97;;;22.14;28.58
55517;BME280;41724;51.176;-0.708;2023-05-23T11:52:06;102203.04;;;23.27;29.40
55517;BME280;41724;51.176;-0.708;2023-05-23T11:54:33;102202.90;;;24.58;28.83
55517;BME280;41724;51.176;-0.708;2023-05-23T11:57:01;102200.31;;;23.73;29.13
55517;BME280;41724;51.176;-0.708;2023-05-23T11:59:28;102206.41;;;22.21;29.54
55517;BME280;41724;51.176;-0.708;2023-05-23T12:01:56;102207.39;;;22.46;30.30
55517;BME280;41724;51.176;-0.708;2023-05-23T12:04:24;102205.29;;;22.94;31.34
55517;BME280;41724;51.176;-0.708;2023-05-23T12:06:52;102203.18;;;23.07;28.31
55517;BME280;41724;51.176;-0.708;2023-05-23T12:09:19;102205.64;;;24.12;29.75
55517;BME280;41724;51.176;-0.708;2023-05-23T12:11:48;102199.26;;;22.81;27.50
55517;BME280;41724;51.176;-0.708;2023-05-23T12:14:16;102200.38;;;23.60;30.92
55517;BME280;41724;51.176;-0.708;2023-05-23T12:16:44;102195.78;;;24.08;28.48
55517;BME280;41724;51.176;-0.708;2023-05-23T12:19:11;102196.16;;;24.57;28.58
55517;BME280;41724;51.176;-0.708;2023-05-23T12:21:42;102190.63;;;25.36;29.17
55517;BME280;41724;51.176;-0.708;2023-05-23T12:24:18;102190.71;;;25.72;26.78
55517;BME280;41724;51.176;-0.708;2023-05-23T12:26:49;102187.89;;;23.93;26.96
55517;BME280;41724;51.176;-0.708;2023-05-23T12:29:19;102194.29;;;22.84;27.55
55517;BME280;41724;51.176;-0.708;2023-05-23T12:31:48;102201.50;;;21.52;30.45
55517;BME280;41724;51.176;-0.708;2023-05-23T12:34:16;102197.31;;;23.26;32.72
55517;BME280;41724;51.176;-0.708;2023-05-23T12:36:43;102191.24;;;23.87;28.13
55517;BME280;41724;51.176;-0.708;2023-05-23T12:39:11;102188.96;;;24.77;26.42
55517;BME280;41724;51.176;-0.708;2023-05-23T12:41:41;102193.88;;;25.66;27.13
55517;BME280;41724;51.176;-0.708;2023-05-23T12:44:08;102193.63;;;26.73;24.90
55517;BME280;41724;51.176;-0.708;2023-05-23T12:46:35;102192.02;;;25.76;24.35